Time;durP1;ratioP1;P1;durP2;ratioP2;P2;SDS_P1;SDS_P2;PMS_P1;PMS_P2;Temp;Humidity;BMP_temperature;BMP_pressure;BME280_temperature;BME280_humidity;BME280_pressure;Samples;Min_cycle;Max_cycle;Signal;HPM_P1;HPM_P2
2021/06/14 00:01:41;;;;;;;4.20;2.10;;;;;;;15.11;75.63;98934.80;129655;1093;113913;-70
2021/06/14 00:04:09;;;;;;;7.95;2.70;;;;;;;15.11;75.35;98935.61;129794;1092;22491;-71
2021/06/14 00:06:38;;;;;;;3.43;2.60;;;;;;;15.10;74.99;98931.23;126959;1093;24174;-70
2021/06/14 00:09:06;;;;;;;3.45;2.38;;;;;;;15.11;75.23;98932.05;129594;1092;113982;-70
2021/06/14 00:11:36;;;;;;;4.20;2.48;;;;;;;15.10;75.33;98938.66;129765;1093;22564;-70
2021/06/14 00:14:04;;;;;;;5.83;3.00;;;;;;;15.09;75.49;98937.84;129739;1092;114308;-70
2021/06/14 00:16:35;;;;;;;3.23;2.33;;;;;;;15.09;75.65;98937.02;129792;1092;22545;-70
2021/06/14 00:19:04;;;;;;;4.60;2.73;;;;;;;15.06;75.67;98934.88;129816;1092;22530;-70
2021/06/14 00:21:35;;;;;;;5.75;2.50;;;;;;;15.04;75.79;98935.17;129729;1093;113407;-70
2021/06/14 00:24:04;;;;;;;3.38;2.28;;;;;;;15.01;75.94;98932.21;129768;1093;23834;-70
2021/06/14 00:26:33;;;;;;;4.00;1.98;;;;;;;14.98;75.59;98930.91;129710;1093;114013;-70
2021/06/14 00:29:02;;;;;;;4.08;2.40;;;;;;;14.96;75.40;98937.80;129803;1092;22534;-70
2021/06/14 00:31:30;;;;;;;3.87;2.53;;;;;;;14.94;75.00;98937.29;129711;1092;113989;-70
2021/06/14 00:33:59;;;;;;;3.38;2.05;;;;;;;14.92;74.98;98939.52;129822;1093;22583;-70
2021/06/14 00:36:29;;;;;;;3.38;2.20;;;;;;;14.90;75.16;98939.81;127287;1093;22821;-69
2021/06/14 00:38:57;;;;;;;4.38;2.13;;;;;;;14.87;74.67;98937.66;125166;1092;114143;-69
2021/06/14 00:41:26;;;;;;;6.98;1.90;;;;;;;14.84;74.86;98936.36;129770;1092;23578;-70
2021/06/14 00:43:54;;;;;;;6.75;2.30;;;;;;;14.84;74.27;98938.28;129627;1093;114292;-69
2021/06/14 00:46:22;;;;;;;2.98;2.23;;;;;;;14.81;74.44;98934.21;129829;1093;22545;-69
2021/06/14 00:48:52;;;;;;;2.70;1.90;;;;;;;14.80;74.24;98934.51;129794;1092;22569;-70
2021/06/14 00:51:20;;;;;;;6.88;1.95;;;;;;;14.79;74.35;98936.44;129725;1092;113847;-71
2021/06/14 00:53:56;;;;;;;4.50;2.00;;;;;;;14.77;73.94;98926.88;129762;1093;23258;-71
2021/06/14 00:56:27;;;;;;;4.18;2.30;;;;;;;14.77;73.77;98930.43;129713;1093;114056;-71
2021/06/14 00:58:56;;;;;;;4.35;2.48;;;;;;;14.76;73.32;98926.06;129775;1093;22539;-71
2021/06/14 01:01:25;;;;;;;2.83;1.83;;;;;;;14.77;73.52;98929.61;129747;1093;115228;-70
2021/06/14 01:03:55;;;;;;;4.58;1.60;;;;;;;14.77;73.35;98930.43;129766;1093;22559;-70
2021/06/14 01:06:23;;;;;;;4.78;2.13;;;;;;;14.79;73.58;98932.88;129839;1093;22540;-70
2021/06/14 01:08:52;;;;;;;2.50;2.03;;;;;;;14.81;73.45;98930.66;129689;1093;114066;-71
2021/06/14 01:11:46;;;;;;;2.13;1.70;;;;;;;14.80;73.17;98932.58;129831;1093;22559;-71
2021/06/14 01:14:42;;;;;;;4.23;1.90;;;;;;;14.82;73.12;98935.84;129615;1095;114093;-69
2021/06/14 01:17:18;;;;;;;3.10;1.95;;;;;;;14.82;72.75;98927.61;129721;1096;22562;-69
2021/06/14 01:20:08;;;;;;;2.63;2.00;;;;;;;14.84;72.61;98935.55;129580;1096;113966;-69
2021/06/14 01:23:16;;;;;;;8.95;2.15;;;;;;;14.86;72.38;98928.62;129767;1094;22541;-70
2021/06/14 01:25:51;;;;;;;6.78;2.40;;;;;;;14.89;72.23;98929.95;129638;1096;114602;-71
2021/06/14 01:28:21;;;;;;;4.40;2.10;;;;;;;14.91;72.04;98933.22;129752;1096;23680;-70
2021/06/14 01:30:50;;;;;;;3.70;2.48;;;;;;;14.92;71.51;98932.10;129693;1095;22560;-70
2021/06/14 01:33:25;;;;;;;5.83;2.40;;;;;;;14.94;71.50;98929.06;129463;1096;114197;-70
2021/06/14 01:35:57;;;;;;;3.40;1.88;;;;;;;14.93;71.50;98936.47;129398;1095;22643;-71
2021/06/14 01:38:28;;;;;;;3.23;1.95;;;;;;;14.97;71.06;98942.18;129328;1096;114072;-70
2021/06/14 01:41:01;;;;;;;3.15;1.93;;;;;;;15.00;71.18;98944.33;129687;1095;23314;-71
2021/06/14 01:43:31;;;;;;;4.95;2.15;;;;;;;15.01;71.41;98941.26;129416;1096;114672;-71
2021/06/14 01:46:03;;;;;;;3.20;1.95;;;;;;;15.02;71.64;98940.14;129707;1093;22535;-70
2021/06/14 01:48:32;;;;;;;3.58;2.18;;;;;;;15.04;71.57;98943.41;129831;1092;22580;-71
2021/06/14 01:51:07;;;;;;;3.80;1.70;;;;;;;15.05;72.07;98942.29;129659;1093;114322;-70
2021/06/14 01:53:36;;;;;;;3.63;2.13;;;;;;;15.06;71.85;98951.34;129780;1093;22639;-71
2021/06/14 01:56:08;;;;;;;3.20;2.05;;;;;;;15.06;72.13;98954.08;129644;1093;113837;-71
2021/06/14 01:58:37;;;;;;;4.05;1.80;;;;;;;15.07;72.17;98958.45;129794;1093;22670;-70
2021/06/14 02:01:14;;;;;;;;;;;;;;;15.06;72.24;98963.13;129678;1093;114202;-70
2021/06/14 02:03:49;;;;;;;3.80;2.10;;;;;;;15.04;71.87;98957.13;129821;1093;21220;-71
2021/06/14 02:06:30;;;;;;;3.13;1.90;;;;;;;15.04;71.94;98956.30;129729;1093;22594;-71
2021/06/14 02:09:01;;;;;;;5.53;2.20;;;;;;;15.04;72.31;98951.63;129729;1093;113986;-71
2021/06/14 02:11:30;;;;;;;3.48;2.33;;;;;;;15.04;72.16;98959.87;129766;1093;22683;-71
2021/06/14 02:13:58;;;;;;;3.30;1.95;;;;;;;15.01;72.21;98957.72;129699;1093;114035;-70
2021/06/14 02:16:27;;;;;;;3.38;1.90;;;;;;;15.01;72.08;98971.44;129771;1093;22549;-71
2021/06/14 02:18:56;;;;;;;5.23;2.20;;;;;;;15.01;72.23;98957.72;129781;1093;22574;-70
2021/06/14 02:21:25;;;;;;;2.95;1.90;;;;;;;15.01;72.23;98967.88;129702;1093;115409;-71
2021/06/14 02:23:54;;;;;;;2.53;2.23;;;;;;;15.00;72.10;98969.02;129760;1093;22560;-71
2021/06/14 02:26:22;;;;;;;3.13;2.20;;;;;;;14.99;72.44;98970.13;129727;1093;113889;-70
2021/06/14 02:28:51;;;;;;;8.05;2.58;;;;;;;15.00;72.64;98969.84;129820;1092;22645;-71
2021/06/14 02:31:20;;;;;;;3.53;2.40;;;;;;;15.00;72.57;98972.58;129668;1093;114196;-70
2021/06/14 02:33:48;;;;;;;2.33;2.10;;;;;;;15.02;72.42;98980.48;129797;1092;22549;-71
2021/06/14 02:36:18;;;;;;;3.75;2.30;;;;;;;15.01;72.34;98985.16;129801;1093;22544;-70
2021/06/14 02:38:46;;;;;;;6.15;2.65;;;;;;;15.02;72.45;98983.23;129674;1093;114303;-70
2021/06/14 02:41:17;;;;;;;4.75;2.33;;;;;;;15.02;72.70;98983.23;129774;1093;22975;-70
2021/06/14 02:43:46;;;;;;;2.80;2.08;;;;;;;15.03;72.23;98987.59;129651;1093;114094;-71
2021/06/14 02:46:14;;;;;;;3.23;2.10;;;;;;;15.01;71.89;98979.66;129767;1093;24030;-67
2021/06/14 02:48:46;;;;;;;3.13;2.43;;;;;;;15.00;71.91;98991.78;129756;1093;22551;-71
2021/06/14 02:51:14;;;;;;;4.60;2.43;;;;;;;14.99;72.31;98987.41;129595;1093;114060;-71
2021/06/14 02:53:43;;;;;;;6.40;2.38;;;;;;;14.98;72.36;98988.52;129760;1093;23119;-70
2021/06/14 02:56:13;;;;;;;5.38;2.55;;;;;;;14.97;72.59;98989.63;129639;1093;113957;-70
2021/06/14 02:58:44;;;;;;;2.95;2.60;;;;;;;14.96;72.77;98989.92;129779;1093;23685;-71
2021/06/14 03:01:14;;;;;;;4.28;2.40;;;;;;;14.94;72.65;98997.64;129689;1093;114168;-70
2021/06/14 03:03:43;;;;;;;6.75;3.55;;;;;;;14.92;72.89;98986.14;129705;1093;22571;-70
2021/06/14 03:06:16;;;;;;;5.50;2.50;;;;;;;14.90;73.13;98996.59;129832;1092;22632;-70
2021/06/14 03:08:46;;;;;;;3.90;2.70;;;;;;;14.90;73.13;98991.11;129668;1093;114029;-70
2021/06/14 03:11:14;;;;;;;10.35;2.55;;;;;;;14.89;73.17;98998.52;129811;1093;22662;-70
2021/06/14 03:13:47;;;;;;;3.18;2.18;;;;;;;14.88;73.23;98999.64;129645;1093;114318;-70
2021/06/14 03:16:17;;;;;;;6.60;2.80;;;;;;;14.88;73.68;98994.16;129782;1093;22510;-70
2021/06/14 03:18:46;;;;;;;3.65;2.50;;;;;;;14.88;73.65;98985.11;129816;1092;22623;-71
2021/06/14 03:21:16;;;;;;;6.48;4.13;;;;;;;14.89;73.63;98990.30;129692;1093;114054;-70
2021/06/14 03:23:48;;;;;;;5.28;2.75;;;;;;;14.88;73.70;98980.44;129775;1092;23501;-70
2021/06/14 03:26:18;;;;;;;3.80;2.73;;;;;;;14.89;73.36;98990.30;127462;1096;114290;-70
2021/06/14 03:28:47;;;;;;;7.78;3.50;;;;;;;14.88;73.73;98988.66;129793;1096;22631;-71
2021/06/14 03:31:15;;;;;;;4.83;2.63;;;;;;;14.88;73.56;98993.34;129249;1096;113937;-70
2021/06/14 03:33:48;;;;;;;3.95;3.10;;;;;;;14.89;73.60;98994.97;129800;1095;23386;-71
2021/06/14 03:36:18;;;;;;;4.83;3.10;;;;;;;14.87;73.79;98992.52;129747;1096;22609;-70
2021/06/14 03:38:46;;;;;;;8.33;3.55;;;;;;;14.88;74.15;99005.13;129641;1096;114151;-70
2021/06/14 03:41:15;;;;;;;4.35;3.20;;;;;;;14.90;74.23;99002.90;129418;1096;22574;-71
2021/06/14 03:43:44;;;;;;;4.23;2.60;;;;;;;14.91;74.38;99003.72;129664;1095;113729;-71
2021/06/14 03:46:12;;;;;;;8.10;3.50;;;;;;;14.91;74.08;99001.78;129745;1095;22632;-71
2021/06/14 03:48:41;;;;;;;5.20;3.60;;;;;;;14.93;74.13;99007.80;129782;1095;22626;-71
2021/06/14 03:51:10;;;;;;;5.98;2.93;;;;;;;14.92;74.21;98995.19;129603;1096;114086;-71
2021/06/14 03:53:39;;;;;;;4.85;3.83;;;;;;;14.94;74.64;99014.09;129587;1095;22560;-72
2021/06/14 03:56:09;;;;;;;4.98;3.60;;;;;;;14.96;74.40;99011.88;129654;1096;113601;-71
2021/06/14 03:58:37;;;;;;;9.28;3.15;;;;;;;14.99;74.68;99014.03;129824;1093;22546;-70
2021/06/14 04:01:05;;;;;;;3.90;2.75;;;;;;;15.03;74.80;99013.11;130098;1090;23107;-70
2021/06/14 04:03:34;;;;;;;7.73;3.53;;;;;;;15.11;74.76;99015.19;130029;1088;113921;-69
2021/06/14 04:06:04;;;;;;;4.60;2.73;;;;;;;15.19;74.20;99011.74;130087;1089;22682;-70
2021/06/14 04:08:36;;;;;;;5.35;2.58;;;;;;;15.25;74.18;99014.41;130009;1090;114036;-70
2021/06/14 04:11:05;;;;;;;6.75;2.60;;;;;;;15.28;73.91;99017.38;130083;1090;22587;-70
2021/06/14 04:13:34;;;;;;;5.88;2.93;;;;;;;15.29;73.85;99016.27;130041;1088;114363;-70
2021/06/14 04:16:02;;;;;;;3.80;2.53;;;;;;;15.30;73.74;99025.28;130086;1090;23483;-70
2021/06/14 04:18:31;;;;;;;3.80;2.73;;;;;;;15.32;73.72;99026.61;130107;1090;22562;-70
2021/06/14 04:20:59;;;;;;;4.70;3.38;;;;;;;15.36;73.99;99022.16;130009;1090;114438;-70
2021/06/14 04:23:28;;;;;;;3.88;2.90;;;;;;;15.41;74.06;99030.31;130141;1090;22594;-70
2021/06/14 04:25:56;;;;;;;5.78;3.23;;;;;;;15.48;73.88;99024.41;130065;1090;114205;-71
2021/06/14 04:28:25;;;;;;;3.38;2.98;;;;;;;15.57;73.95;99030.89;130134;1089;23542;-70
2021/06/14 04:30:53;;;;;;;7.60;3.03;;;;;;;15.64;73.67;99030.47;130143;1090;22560;-70
2021/06/14 04:33:22;;;;;;;3.35;2.48;;;;;;;15.70;73.64;99030.09;130008;1090;114169;-71
2021/06/14 04:35:50;;;;;;;4.38;3.00;;;;;;;15.74;73.42;99036.58;130144;1090;22658;-71
2021/06/14 04:38:19;;;;;;;4.33;2.58;;;;;;;15.79;73.66;99041.17;130035;1090;114688;-70
2021/06/14 04:40:47;;;;;;;3.63;2.63;;;;;;;15.85;73.55;99054.52;130147;1090;22635;-71
2021/06/14 04:43:16;;;;;;;3.83;3.03;;;;;;;15.91;73.53;99053.29;129960;1090;114205;-70
2021/06/14 04:45:46;;;;;;;8.43;3.25;;;;;;;15.99;73.39;99056.47;130184;1090;22535;-71
2021/06/14 04:48:14;;;;;;;6.73;3.18;;;;;;;16.04;73.23;99053.59;130098;1090;23362;-70
2021/06/14 04:50:45;;;;;;;3.78;2.80;;;;;;;16.10;72.88;99066.94;130041;1089;114023;-71
2021/06/14 04:53:14;;;;;;;3.40;2.80;;;;;;;16.14;72.93;99064.41;130098;1089;22622;-70
2021/06/14 04:55:43;;;;;;;4.50;3.10;;;;;;;16.19;72.99;99065.09;129008;1090;113962;-70
2021/06/14 04:58:11;;;;;;;3.28;2.98;;;;;;;16.26;72.87;99068.27;125443;1089;22833;-69
2021/06/14 05:00:40;;;;;;;4.80;3.10;;;;;;;16.33;73.22;99069.77;125460;1090;22816;-70
2021/06/14 05:03:08;;;;;;;4.13;2.93;;;;;;;16.39;73.21;99069.38;129974;1090;113798;-70
2021/06/14 05:05:38;;;;;;;7.47;2.87;;;;;;;16.47;72.87;99070.57;130126;1090;22668;-70
2021/06/14 05:08:06;;;;;;;4.58;2.93;;;;;;;16.53;72.91;99072.92;129998;1090;114011;-70
2021/06/14 05:10:35;;;;;;;5.40;2.98;;;;;;;16.59;72.48;99065.38;130121;1090;23104;-71
2021/06/14 05:13:04;;;;;;;3.95;3.20;;;;;;;16.62;72.45;99086.75;130117;1090;22526;-70
2021/06/14 05:15:32;;;;;;;6.13;3.23;;;;;;;16.62;72.26;99084.00;130025;1090;113933;-71
2021/06/14 05:18:00;;;;;;;5.00;3.20;;;;;;;16.61;72.38;99066.67;130093;1089;22536;-70
2021/06/14 05:20:30;;;;;;;11.33;9.78;;;;;;;16.66;72.63;99078.73;130026;1088;113786;-71
2021/06/14 05:22:58;;;;;;;4.80;4.23;;;;;;;16.71;72.57;99084.13;130174;1089;23366;-71
2021/06/14 05:25:33;;;;;;;6.48;3.63;;;;;;;16.79;72.68;99080.64;129991;1090;114236;-71
2021/06/14 05:28:01;;;;;;;7.50;4.65;;;;;;;16.92;72.94;99096.30;130151;1090;23371;-71
2021/06/14 05:30:31;;;;;;;5.28;2.90;;;;;;;17.08;72.50;99100.33;130092;1090;22631;-71
2021/06/14 05:33:00;;;;;;;4.88;3.13;;;;;;;17.26;72.49;99090.27;130013;1090;114162;-71
2021/06/14 05:35:29;;;;;;;6.05;2.83;;;;;;;17.45;71.59;99092.84;130095;1090;22747;-71
2021/06/14 05:37:57;;;;;;;4.05;3.30;;;;;;;17.59;70.99;99086.14;130042;1090;114009;-71
2021/06/14 05:40:26;;;;;;;7.38;3.30;;;;;;;17.73;70.75;99082.52;130084;1090;23383;-71
2021/06/14 05:42:54;;;;;;;7.28;3.35;;;;;;;17.87;70.67;99092.33;130146;1090;22560;-71
2021/06/14 05:45:22;;;;;;;6.30;3.00;;;;;;;17.99;70.09;99086.22;129997;1089;113317;-71
2021/06/14 05:47:51;;;;;;;5.40;3.70;;;;;;;18.13;70.00;99088.87;130096;1090;22672;-69
2021/06/14 05:50:19;;;;;;;4.73;3.30;;;;;;;18.25;69.62;99087.13;129916;1090;113955;-70
2021/06/14 05:52:47;;;;;;;5.40;3.40;;;;;;;18.36;68.84;99093.16;130095;1090;22612;-69
2021/06/14 05:55:16;;;;;;;7.90;3.43;;;;;;;18.41;69.27;99081.99;129948;1089;114114;-70
2021/06/14 05:57:44;;;;;;;4.78;2.98;;;;;;;18.49;68.98;99089.46;130100;1089;23703;-70
2021/06/14 06:00:13;;;;;;;6.38;3.43;;;;;;;18.58;68.66;99097.78;130102;1088;23042;-70
2021/06/14 06:02:42;;;;;;;4.03;3.53;;;;;;;18.61;68.64;99103.48;129969;1090;114033;-69
2021/06/14 06:05:11;;;;;;;7.10;3.68;;;;;;;18.65;68.52;99112.75;130079;1088;22540;-69
2021/06/14 06:07:39;;;;;;;6.65;3.63;;;;;;;18.64;68.27;99115.83;130020;1090;113946;-68
2021/06/14 06:10:10;;;;;;;3.93;3.20;;;;;;;18.62;68.98;99109.81;130083;1089;22541;-69
2021/06/14 06:12:39;;;;;;;4.95;3.90;;;;;;;18.65;69.09;99109.17;130088;1089;22571;-69
2021/06/14 06:15:11;;;;;;;7.70;3.93;;;;;;;18.74;69.00;99125.77;130040;1090;113996;-69
2021/06/14 06:17:39;;;;;;;4.28;3.85;;;;;;;18.79;68.36;99131.13;130087;1090;23007;-69
2021/06/14 06:20:08;;;;;;;5.70;4.25;;;;;;;18.78;68.46;99123.97;130038;1090;113997;-69
2021/06/14 06:22:36;;;;;;;5.75;3.80;;;;;;;18.74;68.82;99120.25;130047;1090;23666;-69
2021/06/14 06:25:09;;;;;;;5.35;4.23;;;;;;;18.70;68.86;99134.69;130126;1090;23192;-69
2021/06/14 06:27:37;;;;;;;5.40;4.13;;;;;;;18.69;69.77;99121.20;129993;1090;113645;-69
2021/06/14 06:30:07;;;;;;;5.38;3.80;;;;;;;18.75;69.64;99125.45;130144;1090;22529;-70
2021/06/14 06:32:35;;;;;;;6.13;3.70;;;;;;;18.85;69.76;99122.38;130007;1089;113660;-69
2021/06/14 06:35:04;;;;;;;5.93;3.80;;;;;;;18.98;70.13;99131.66;130160;1090;22648;-70
2021/06/14 06:37:37;;;;;;;6.23;3.98;;;;;;;19.12;69.57;99129.55;129997;1090;114195;-69
2021/06/14 06:40:06;;;;;;;4.50;3.75;;;;;;;19.20;69.27;99131.50;130126;1089;22980;-70
2021/06/14 06:42:35;;;;;;;4.50;3.73;;;;;;;19.28;68.71;99122.41;130089;1090;22594;-70
2021/06/14 06:45:04;;;;;;;5.00;3.80;;;;;;;19.33;68.46;99119.47;130016;1089;113783;-70
2021/06/14 06:47:33;;;;;;;7.10;3.68;;;;;;;19.36;68.47;99129.88;130065;1089;22566;-70
2021/06/14 06:50:01;;;;;;;7.63;4.30;;;;;;;19.43;68.71;99135.73;130007;1090;113527;-70
2021/06/14 06:52:31;;;;;;;4.38;3.60;;;;;;;19.52;68.28;99134.94;130070;1090;22581;-70
2021/06/14 06:55:00;;;;;;;5.63;4.58;;;;;;;19.56;67.72;99147.78;130115;1090;23000;-70
2021/06/14 06:57:28;;;;;;;4.48;4.03;;;;;;;19.52;67.87;99146.81;129981;1090;114581;-70
2021/06/14 06:59:57;;;;;;;4.43;4.03;;;;;;;19.53;67.32;99153.95;130196;1089;22618;-70
2021/06/14 07:02:25;;;;;;;6.38;3.98;;;;;;;19.50;67.43;99162.89;130007;1090;114006;-70
2021/06/14 07:04:55;;;;;;;6.45;4.38;;;;;;;19.47;67.42;99157.20;130116;1090;22562;-70
2021/06/14 07:07:23;;;;;;;4.65;3.80;;;;;;;19.42;67.49;99160.93;125762;1089;113899;-69
2021/06/14 07:09:52;;;;;;;4.70;3.83;;;;;;;19.37;67.76;99158.31;125475;1090;22802;-71
2021/06/14 07:12:20;;;;;;;5.05;3.75;;;;;;;19.32;67.79;99167.59;130035;1089;22608;-71
2021/06/14 07:14:49;;;;;;;5.05;4.38;;;;;;;19.28;67.90;99165.80;130009;1090;113803;-71
2021/06/14 07:17:18;;;;;;;4.95;4.15;;;;;;;19.25;68.17;99167.25;130132;1090;22563;-71
2021/06/14 07:19:46;;;;;;;4.78;3.95;;;;;;;19.28;68.78;99160.27;130001;1090;114684;-71
2021/06/14 07:22:14;;;;;;;7.90;4.48;;;;;;;19.26;69.11;99157.83;130126;1090;22601;-71
2021/06/14 07:24:43;;;;;;;5.88;4.40;;;;;;;19.36;69.16;99174.08;130147;1090;22638;-71
2021/06/14 07:27:12;;;;;;;6.35;4.03;;;;;;;19.47;68.83;99176.54;130038;1089;113808;-71
2021/06/14 07:29:40;;;;;;;5.78;4.18;;;;;;;19.56;68.62;99182.91;130137;1090;22630;-71
2021/06/14 07:32:09;;;;;;;5.58;4.70;;;;;;;19.62;68.06;99173.32;130032;1090;113901;-71
2021/06/14 07:34:39;;;;;;;3.95;3.55;;;;;;;19.65;68.16;99180.94;130120;1090;22527;-71
2021/06/14 07:37:07;;;;;;;5.00;4.25;;;;;;;19.69;68.63;99174.44;130154;1090;23397;-71
2021/06/14 07:39:47;;;;;;;6.65;4.23;;;;;;;19.75;68.50;99186.16;130024;1090;113978;-71
2021/06/14 07:42:16;;;;;;;5.53;4.13;;;;;;;19.81;68.42;99189.55;130090;1090;22585;-71
2021/06/14 07:44:45;;;;;;;5.25;4.63;;;;;;;19.84;67.81;99195.23;129975;1090;114889;-71
2021/06/14 07:47:13;;;;;;;5.25;4.20;;;;;;;19.84;68.44;99186.95;130122;1090;22591;-71
2021/06/14 07:49:42;;;;;;;6.03;4.30;;;;;;;19.95;69.20;99190.98;130005;1089;114304;-71
2021/06/14 07:52:11;;;;;;;9.25;4.60;;;;;;;20.09;68.31;99197.14;130106;1090;23370;-71
2021/06/14 07:54:54;;;;;;;13.35;5.20;;;;;;;20.21;67.66;99195.64;130132;1089;22598;-71
2021/06/14 07:57:22;;;;;;;24.13;4.83;;;;;;;20.30;67.48;99188.16;130044;1089;113982;-71
2021/06/14 07:59:50;;;;;;;9.75;4.50;;;;;;;20.35;67.50;99193.48;130048;1089;22540;-71
2021/06/14 08:02:18;;;;;;;8.73;4.05;;;;;;;20.40;66.77;99190.58;130009;1090;113998;-71
2021/06/14 08:05:44;;;;;;;8.73;4.00;;;;;;;20.47;66.29;99196.43;125588;1093;22811;-71
2021/06/14 08:08:14;;;;;;;6.45;3.95;;;;;;;20.50;66.02;99187.44;129884;1093;114125;-71
2021/06/14 08:10:43;;;;;;;6.70;3.50;;;;;;;20.53;65.88;99195.09;129771;1093;22689;-71
2021/06/14 08:13:12;;;;;;;6.83;4.28;;;;;;;20.57;66.48;99196.05;129816;1093;22557;-70
2021/06/14 08:15:41;;;;;;;6.38;4.38;;;;;;;20.62;66.13;99197.84;129682;1093;113365;-72
2021/06/14 08:18:22;;;;;;;5.08;3.98;;;;;;;20.66;65.71;99188.52;129835;1093;22525;-72
2021/06/14 08:26:24;;;;;;;6.23;4.25;;;;;;;20.88;65.80;99204.06;129709;1093;114358;-71
2021/06/14 08:28:52;;;;;;;7.23;3.83;;;;;;;20.99;65.61;99208.06;129827;1093;22580;-71
2021/06/14 08:31:21;;;;;;;6.30;3.70;;;;;;;21.07;64.05;99214.69;129638;1093;114150;-71
2021/06/14 08:33:50;;;;;;;4.63;4.15;;;;;;;21.09;63.80;99215.98;129788;1093;22554;-71
2021/06/14 08:36:34;;;;;;;9.38;4.20;;;;;;;21.14;63.54;99226.06;129760;1093;22571;-71
2021/06/14 08:39:06;;;;;;;7.53;4.18;;;;;;;21.19;63.68;99223.14;129716;1093;113688;-71
2021/06/14 08:41:34;;;;;;;9.03;4.60;;;;;;;21.24;63.88;99231.24;129814;1093;23128;-71
2021/06/14 08:44:03;;;;;;;6.80;4.48;;;;;;;21.28;63.45;99239.70;129722;1092;113806;-72
2021/06/14 08:46:33;;;;;;;26.15;5.98;;;;;;;21.28;62.93;99223.89;129833;1093;22953;-72
2021/06/14 08:49:02;;;;;;;5.23;4.43;;;;;;;21.27;63.33;99240.85;129852;1092;22672;-71
2021/06/14 08:51:30;;;;;;;5.30;4.38;;;;;;;21.25;63.22;99246.73;129708;1093;113984;-71
2021/06/14 08:53:59;;;;;;;6.18;4.60;;;;;;;21.26;63.33;99247.54;129787;1093;22588;-71
2021/06/14 08:56:27;;;;;;;8.05;4.60;;;;;;;21.25;63.82;99241.19;129703;1093;114847;-71
2021/06/14 08:58:56;;;;;;;8.98;4.85;;;;;;;21.28;63.28;99251.61;129790;1092;22628;-72
2021/06/14 09:01:25;;;;;;;5.98;4.35;;;;;;;21.31;63.94;99258.44;129670;1093;113790;-72
2021/06/14 09:03:53;;;;;;;5.08;4.48;;;;;;;21.32;63.77;99254.52;129753;1092;22597;-72
2021/06/14 09:06:22;;;;;;;8.70;4.83;;;;;;;21.33;64.36;99256.96;129837;1092;22538;-71
2021/06/14 09:08:55;;;;;;;4.58;3.93;;;;;;;21.34;63.13;99263.32;129682;1092;113909;-70
2021/06/14 09:11:24;;;;;;;4.60;4.08;;;;;;;21.31;63.18;99270.34;129858;1093;24568;-70
2021/06/14 09:13:54;;;;;;;6.55;4.23;;;;;;;21.31;63.30;99273.11;129693;1092;114044;-70
2021/06/14 09:16:24;;;;;;;6.25;4.00;;;;;;;21.31;63.96;99269.52;129832;1092;22556;-71
2021/06/14 09:18:52;;;;;;;5.80;4.58;;;;;;;21.36;64.14;99274.86;129806;1093;22556;-72
2021/06/14 09:21:29;;;;;;;5.68;4.63;;;;;;;21.42;64.48;99271.56;129754;1093;113561;-71
2021/06/14 09:24:05;;;;;;;5.05;4.28;;;;;;;21.51;64.08;99275.08;129800;1093;22556;-71
2021/06/14 09:26:39;;;;;;;5.45;4.13;;;;;;;21.57;63.70;99269.35;129723;1093;113405;-71
2021/06/14 09:29:10;;;;;;;5.30;3.70;;;;;;;21.61;63.88;99273.08;129773;1093;22561;-71
2021/06/14 09:31:46;;;;;;;4.18;3.53;;;;;;;21.68;64.36;99267.80;129701;1093;113132;-70
2021/06/14 09:34:16;;;;;;;7.85;3.68;;;;;;;21.78;64.58;99264.64;129640;1093;115040;-71
2021/06/14 09:37:01;;;;;;;5.53;3.43;;;;;;;21.90;64.25;99270.25;129721;1092;22597;-70
2021/06/14 09:39:43;;;;;;;6.48;3.13;;;;;;;22.03;62.58;99271.14;129850;1093;22672;-71
2021/06/14 09:42:23;;;;;;;6.93;3.10;;;;;;;22.14;62.51;99275.93;129766;1093;113602;-71
2021/06/14 09:44:52;;;;;;;4.75;2.98;;;;;;;22.20;61.66;99280.13;129836;1092;22618;-72
2021/06/14 09:47:21;;;;;;;4.00;3.20;;;;;;;22.27;61.71;99278.75;129699;1093;113675;-71
2021/06/14 09:49:57;;;;;;;7.85;3.35;;;;;;;22.34;61.76;99279.02;129788;1093;23158;-71
2021/06/14 09:52:28;;;;;;;5.43;3.63;;;;;;;22.41;61.99;99273.70;129648;1091;113917;-71
2021/06/14 09:55:17;;;;;;;6.45;3.68;;;;;;;22.47;61.55;99275.13;129760;1093;24450;-71
2021/06/14 09:57:46;;;;;;;3.95;3.55;;;;;;;22.52;61.16;99281.25;129765;1093;22587;-71
2021/06/14 10:00:16;;;;;;;3.48;3.18;;;;;;;22.56;61.01;99282.20;129670;1092;113877;-72
2021/06/14 10:02:45;;;;;;;4.90;3.63;;;;;;;22.61;61.25;99278.41;129768;1093;22536;-69
2021/06/14 10:05:22;;;;;;;6.40;3.33;;;;;;;22.63;60.06;99278.06;129745;1093;113657;-71
2021/06/14 10:07:55;;;;;;;7.65;2.90;;;;;;;22.65;60.37;99284.09;129803;1092;23696;-71
2021/06/14 10:10:25;;;;;;;5.40;3.50;;;;;;;22.69;60.28;99285.00;129720;1093;113653;-71
2021/06/14 10:12:55;;;;;;;3.98;3.55;;;;;;;22.68;61.07;99289.74;129791;1093;22582;-71
2021/06/14 10:15:35;;;;;;;5.63;3.43;;;;;;;22.68;60.87;99277.82;129831;1092;23114;-71
2021/06/14 10:18:11;;;;;;;3.93;3.33;;;;;;;22.69;60.95;99282.22;129677;1092;113893;-71
2021/06/14 10:20:39;;;;;;;7.08;3.50;;;;;;;22.73;60.37;99280.39;129845;1093;22578;-70
2021/06/14 10:23:08;;;;;;;4.00;3.10;;;;;;;22.77;59.93;99290.50;129715;1092;113452;-71
2021/06/14 10:25:36;;;;;;;6.03;3.00;;;;;;;22.81;59.14;99293.38;129830;1092;22568;-71
2021/06/14 10:28:07;;;;;;;5.60;3.20;;;;;;;22.81;58.61;99285.05;129801;1093;22570;-71
2021/06/14 10:30:36;;;;;;;6.53;3.15;;;;;;;22.81;57.24;99285.86;129733;1093;113866;-71
2021/06/14 10:33:05;;;;;;;3.35;3.05;;;;;;;22.83;57.59;99291.08;129789;1092;22562;-71
2021/06/14 10:35:35;;;;;;;3.88;3.10;;;;;;;22.84;58.08;99295.48;129720;1092;113551;-71
2021/06/14 10:38:04;;;;;;;4.03;2.73;;;;;;;22.85;58.70;99286.80;129817;1093;22601;-71
2021/06/14 10:40:34;;;;;;;3.88;3.30;;;;;;;22.86;58.39;99284.84;129686;1093;114038;-71
2021/06/14 10:43:03;;;;;;;5.23;3.33;;;;;;;22.89;58.97;99284.96;129771;1093;22602;-73
2021/06/14 10:45:33;;;;;;;5.70;3.05;;;;;;;22.93;58.97;99278.72;129804;1093;22573;-72
2021/06/14 10:48:03;;;;;;;3.88;3.08;;;;;;;22.91;58.88;99277.09;129713;1093;113589;-72
2021/06/14 10:50:32;;;;;;;3.48;3.03;;;;;;;22.95;58.77;99273.61;129781;1093;22556;-72
2021/06/14 10:53:01;;;;;;;10.88;3.65;;;;;;;22.96;59.43;99278.01;129648;1093;113511;-71
2021/06/14 10:55:32;;;;;;;5.68;3.30;;;;;;;22.99;59.52;99280.09;129814;1092;22564;-71
2021/06/14 10:58:04;;;;;;;5.63;3.23;;;;;;;23.00;58.81;99276.98;129771;1093;22612;-72
2021/06/14 11:00:35;;;;;;;4.18;3.15;;;;;;;23.00;58.92;99284.50;129706;1093;113770;-71
2021/06/14 11:03:05;;;;;;;5.70;3.85;;;;;;;22.99;59.90;99288.44;129755;1093;22549;-71
2021/06/14 11:05:40;;;;;;;5.88;3.33;;;;;;;23.01;59.16;99275.82;129705;1093;113598;-71
2021/06/14 11:08:22;;;;;;;4.58;3.53;;;;;;;23.07;59.23;99281.97;129758;1093;22605;-70
2021/06/14 11:11:06;;;;;;;3.75;2.48;;;;;;;23.14;58.03;99280.22;129668;1092;114011;-71
2021/06/14 11:13:49;;;;;;;9.20;3.70;;;;;;;23.19;57.32;99281.97;129778;1093;22989;-71
2021/06/14 11:16:18;;;;;;;7.35;3.30;;;;;;;23.19;57.10;99274.44;129680;1093;113673;-71
2021/06/14 11:18:49;;;;;;;3.73;3.35;;;;;;;23.18;57.88;99275.59;129757;1092;22570;-71
2021/06/14 11:21:19;;;;;;;3.70;3.40;;;;;;;23.18;58.72;99270.04;129804;1093;22570;-71
2021/06/14 11:23:49;;;;;;;6.18;3.23;;;;;;;23.21;59.30;99285.22;129634;1093;113878;-72
2021/06/14 11:26:30;;;;;;;4.98;3.23;;;;;;;23.26;58.28;99287.75;129744;1093;22539;-72
2021/06/14 11:29:17;;;;;;;7.20;2.93;;;;;;;23.30;58.03;99287.87;129621;1093;113836;-71
2021/06/14 11:32:02;;;;;;;5.95;2.60;;;;;;;23.28;57.04;99288.22;129785;1092;22522;-71
2021/06/14 11:34:40;;;;;;;4.75;2.68;;;;;;;23.26;56.63;99282.19;129636;1093;113632;-72
2021/06/14 11:37:09;;;;;;;2.85;2.45;;;;;;;23.27;56.70;99275.47;129769;1092;22669;-72
2021/06/14 11:39:37;;;;;;;4.88;2.80;;;;;;;23.26;56.28;99276.63;129749;1093;22617;-72
2021/06/14 11:42:14;;;;;;;3.65;2.43;;;;;;;23.25;56.15;99281.38;129747;1093;113562;-71
2021/06/14 11:44:56;;;;;;;4.88;2.85;;;;;;;23.28;56.21;99279.88;129778;1093;22523;-71